TimeCDT,TemperatureF,Dew PointF,Humidity,Sea Level PressureIn,VisibilityMPH,Wind Direction,Wind SpeedMPH,Gust SpeedMPH,PrecipitationIn,Events,Conditions,WindDirDegrees,DateUTC
12:53 AM,54.0,46.0,75,30.16,10.0,Calm,Calm,-,N/A,,Overcast,0,2012-10-08 05:53:00
1:53 AM,54.0,46.9,77,30.15,10.0,Calm,Calm,-,N/A,,Mostly Cloudy,0,2012-10-08 06:53:00
2:53 AM,54.0,46.9,77,30.17,10.0,NNW,4.6,-,N/A,,Overcast,340,2012-10-08 07:53:00
3:53 AM,54.0,46.9,77,30.16,10.0,North,6.9,-,N/A,,Overcast,360,2012-10-08 08:53:00
4:53 AM,53.1,46.0,77,30.17,10.0,Variable,4.6,-,N/A,,Overcast,0,2012-10-08 09:53:00
5:53 AM,53.1,45.0,74,30.18,10.0,Variable,5.8,-,N/A,,Overcast,0,2012-10-08 10:53:00
6:53 AM,52.0,45.0,77,30.21,10.0,North,3.5,-,N/A,,Overcast,10,2012-10-08 11:53:00
7:53 AM,51.1,45.0,80,30.22,10.0,NNE,5.8,-,N/A,,Overcast,30,2012-10-08 12:53:00
8:53 AM,52.0,45.0,77,30.23,10.0,NE,5.8,-,N/A,,Overcast,40,2012-10-08 13:53:00
9:53 AM,55.0,45.0,69,30.24,10.0,ENE,8.1,-,N/A,,Overcast,60,2012-10-08 14:53:00
10:53 AM,57.0,46.0,67,30.24,10.0,Variable,4.6,-,N/A,,Overcast,0,2012-10-08 15:53:00
11:53 AM,61.0,46.9,60,30.22,10.0,Variable,5.8,-,N/A,,Clear,0,2012-10-08 16:53:00
12:19 PM,62.6,46.4,55,30.22,10.0,NE,4.6,-,N/A,,Mostly Cloudy,40,2012-10-08 17:19:00
12:39 PM,62.6,46.4,55,30.20,10.0,Variable,4.6,-,N/A,,Mostly Cloudy,0,2012-10-08 17:39:00
12:53 PM,63.0,46.9,56,30.20,10.0,Variable,3.5,-,N/A,,Mostly Cloudy,0,2012-10-08 17:53:00
1:53 PM,66.0,46.9,50,30.17,10.0,Variable,5.8,-,N/A,,Mostly Cloudy,0,2012-10-08 18:53:00
2:53 PM,66.9,46.9,49,30.14,10.0,Variable,5.8,-,N/A,,Partly Cloudy,0,2012-10-08 19:53:00
3:53 PM,64.0,48.0,56,30.13,10.0,Calm,Calm,-,N/A,,Mostly Cloudy,0,2012-10-08 20:53:00
4:53 PM,66.0,48.0,52,30.13,10.0,North,5.8,-,N/A,,Mostly Cloudy,350,2012-10-08 21:53:00
5:53 PM,60.1,48.9,67,30.14,10.0,Variable,3.5,-,N/A,,Partly Cloudy,0,2012-10-08 22:53:00
6:53 PM,57.2,48.2,72,30.14,10.0,Calm,Calm,-,N/A,,Scattered Clouds,0,2012-10-08 23:53:00
7:53 PM,53.6,48.2,82,30.14,10.0,Calm,Calm,-,N/A,,Clear,0,2012-10-09 00:53:00
8:53 PM,51.1,48.0,89,30.15,10.0,Calm,Calm,-,N/A,,Clear,0,2012-10-09 01:53:00
9:53 PM,48.0,46.0,93,30.16,3.0,Calm,Calm,-,N/A,,Clear,0,2012-10-09 02:53:00
10:53 PM,46.9,44.1,90,30.16,2.5,Calm,Calm,-,N/A,,Partly Cloudy,0,2012-10-09 03:53:00
11:08 PM,46.4,44.6,93,30.16,5.0,Calm,Calm,-,N/A,,Clear,0,2012-10-09 04:08:00
11:53 PM,46.0,44.1,93,30.15,6.0,Calm,Calm,-,N/A,,Clear,0,2012-10-09 04:53:00